sensor_id;sensor_type;location;lat;lon;timestamp;pressure;altitude;pressure_sealevel;temperature;humidity
22582;BME280;47125;48.542;9.052;2024-02-21T00:02:40;96920.41;;;7.82;68.60
22582;BME280;47125;48.542;9.052;2024-02-21T00:12:42;96920.34;;;7.69;69.22
22582;BME280;47125;48.542;9.052;2024-02-21T00:22:46;96921.16;;;7.69;68.72
22582;BME280;47125;48.542;9.052;2024-02-21T00:32:48;96907.41;;;7.59;69.03
22582;BME280;47125;48.542;9.052;2024-02-21T00:42:52;96900.53;;;7.71;68.70
22582;BME280;47125;48.542;9.052;2024-02-21T00:52:55;96899.88;;;7.69;68.77
22582;BME280;47125;48.542;9.052;2024-02-21T01:02:58;96883.31;;;7.67;68.59
22582;BME280;47125;48.542;9.052;2024-02-21T01:13:01;96872.47;;;7.62;68.78
22582;BME280;47125;48.542;9.052;2024-02-21T01:23:05;96860.19;;;7.61;68.83
22582;BME280;47125;48.542;9.052;2024-02-21T01:33:07;96827.88;;;7.64;68.65
22582;BME280;47125;48.542;9.052;2024-02-21T01:43:19;96817.47;;;7.63;68.88
22582;BME280;47125;48.542;9.052;2024-02-21T01:53:22;96803.13;;;7.64;69.53
22582;BME280;47125;48.542;9.052;2024-02-21T02:03:26;96790.09;;;7.69;69.38
22582;BME280;47125;48.542;9.052;2024-02-21T02:13:30;96773.09;;;7.70;69.25
22582;BME280;47125;48.542;9.052;2024-02-21T02:23:34;96744.66;;;7.64;69.03
22582;BME280;47125;48.542;9.052;2024-02-21T02:33:36;96726.28;;;7.62;69.29
22582;BME280;47125;48.542;9.052;2024-02-21T02:43:40;96726.44;;;7.61;69.30
22582;BME280;47125;48.542;9.052;2024-02-21T02:53:42;96709.69;;;7.60;69.73
22582;BME280;47125;48.542;9.052;2024-02-21T03:03:46;96686.59;;;7.67;69.06
22582;BME280;47125;48.542;9.052;2024-02-21T03:13:49;96680.69;;;7.65;68.74
22582;BME280;47125;48.542;9.052;2024-02-21T03:23:53;96659.00;;;7.68;69.42
22582;BME280;47125;48.542;9.052;2024-02-21T03:33:56;96639.13;;;7.58;69.75
22582;BME280;47125;48.542;9.052;2024-02-21T03:43:59;96645.06;;;7.53;69.35
22582;BME280;47125;48.542;9.052;2024-02-21T03:54:02;96647.28;;;7.43;69.70
22582;BME280;47125;48.542;9.052;2024-02-21T04:04:06;96647.69;;;7.34;69.75
22582;BME280;47125;48.542;9.052;2024-02-21T04:14:09;96641.56;;;7.27;70.28
22582;BME280;47125;48.542;9.052;2024-02-21T04:24:14;96615.41;;;7.43;69.33
22582;BME280;47125;48.542;9.052;2024-02-21T04:34:16;96621.91;;;7.28;69.88
22582;BME280;47125;48.542;9.052;2024-02-21T04:44:20;96590.84;;;7.08;70.31
22582;BME280;47125;48.542;9.052;2024-02-21T04:54:23;96591.88;;;7.14;70.14
22582;BME280;47125;48.542;9.052;2024-02-21T05:04:27;96590.56;;;6.90;70.73
22582;BME280;47125;48.542;9.052;2024-02-21T05:14:30;96595.66;;;6.92;70.69
22582;BME280;47125;48.542;9.052;2024-02-21T05:24:34;96595.47;;;6.93;70.81
22582;BME280;47125;48.542;9.052;2024-02-21T05:34:37;96580.75;;;6.84;70.89
22582;BME280;47125;48.542;9.052;2024-02-21T05:44:41;96555.25;;;6.96;70.12
22582;BME280;47125;48.542;9.052;2024-02-21T05:54:44;96556.66;;;6.92;70.29
22582;BME280;47125;48.542;9.052;2024-02-21T06:04:47;96538.69;;;6.94;70.49
22582;BME280;47125;48.542;9.052;2024-02-21T06:14:50;96535.38;;;6.66;71.58
22582;BME280;47125;48.542;9.052;2024-02-21T06:24:53;96525.19;;;6.83;70.87
22582;BME280;47125;48.542;9.052;2024-02-21T06:34:56;96535.00;;;6.76;71.10
22582;BME280;47125;48.542;9.052;2024-02-21T06:45:00;96534.31;;;6.60;71.37
22582;BME280;47125;48.542;9.052;2024-02-21T06:55:03;96543.34;;;6.79;71.01
22582;BME280;47125;48.542;9.052;2024-02-21T07:05:07;96528.47;;;6.85;70.91
22582;BME280;47125;48.542;9.052;2024-02-21T07:15:10;96525.59;;;6.80;71.72
22582;BME280;47125;48.542;9.052;2024-02-21T07:25:14;96524.59;;;6.87;72.27
22582;BME280;47125;48.542;9.052;2024-02-21T07:35:16;96525.84;;;6.98;72.09
22582;BME280;47125;48.542;9.052;2024-02-21T07:45:21;96498.28;;;7.25;71.12
22582;BME280;47125;48.542;9.052;2024-02-21T07:55:25;96491.13;;;7.45;70.46
22582;BME280;47125;48.542;9.052;2024-02-21T08:05:29;96482.56;;;7.50;70.02
22582;BME280;47125;48.542;9.052;2024-02-21T08:15:31;96482.91;;;7.80;69.45
22582;BME280;47125;48.542;9.052;2024-02-21T08:25:36;96469.41;;;7.81;68.85
22582;BME280;47125;48.542;9.052;2024-02-21T08:35:38;96469.94;;;8.09;68.26
22582;BME280;47125;48.542;9.052;2024-02-21T08:45:42;96455.56;;;8.23;67.94
22582;BME280;47125;48.542;9.052;2024-02-21T08:55:45;96445.97;;;8.29;67.79
22582;BME280;47125;48.542;9.052;2024-02-21T09:05:49;96428.34;;;8.35;67.23
22582;BME280;47125;48.542;9.052;2024-02-21T09:15:51;96423.97;;;8.47;67.20
22582;BME280;47125;48.542;9.052;2024-02-21T09:25:55;96399.34;;;8.58;67.67
22582;BME280;47125;48.542;9.052;2024-02-21T09:35:58;96393.88;;;8.77;66.92
22582;BME280;47125;48.542;9.052;2024-02-21T09:46:02;96393.50;;;8.99;66.62
22582;BME280;47125;48.542;9.052;2024-02-21T09:56:05;96388.03;;;9.18;66.06
22582;BME280;47125;48.542;9.052;2024-02-21T10:06:14;96362.75;;;9.46;64.59
22582;BME280;47125;48.542;9.052;2024-02-21T10:16:17;96364.31;;;9.89;63.44
22582;BME280;47125;48.542;9.052;2024-02-21T10:26:21;96332.13;;;10.21;62.15
22582;BME280;47125;48.542;9.052;2024-02-21T10:36:23;96328.16;;;10.53;61.49
22582;BME280;47125;48.542;9.052;2024-02-21T10:46:28;96308.38;;;10.84;58.73
22582;BME280;47125;48.542;9.052;2024-02-21T10:56:32;96298.25;;;11.09;56.38
22582;BME280;47125;48.542;9.052;2024-02-21T11:06:39;96283.97;;;11.38;54.41
22582;BME280;47125;48.542;9.052;2024-02-21T11:16:42;96261.31;;;11.29;53.07
22582;BME280;47125;48.542;9.052;2024-02-21T11:26:46;96244.16;;;11.42;52.63
22582;BME280;47125;48.542;9.052;2024-02-21T11:36:51;96204.59;;;11.55;52.62
22582;BME280;47125;48.542;9.052;2024-02-21T11:46:55;96199.44;;;11.66;52.09
22582;BME280;47125;48.542;9.052;2024-02-21T11:56:57;96181.66;;;11.71;51.66
22582;BME280;47125;48.542;9.052;2024-02-21T12:07:01;96171.25;;;12.03;51.14
22582;BME280;47125;48.542;9.052;2024-02-21T12:17:06;96151.06;;;12.29;49.07
22582;BME280;47125;48.542;9.052;2024-02-21T12:27:10;96141.13;;;12.62;48.91
22582;BME280;47125;48.542;9.052;2024-02-21T12:37:13;96118.31;;;12.77;49.38
22582;BME280;47125;48.542;9.052;2024-02-21T12:47:18;96096.13;;;12.81;49.52
22582;BME280;47125;48.542;9.052;2024-02-21T12:57:24;96084.47;;;12.70;49.94
22582;BME280;47125;48.542;9.052;2024-02-21T13:07:29;96058.84;;;12.80;49.73
22582;BME280;47125;48.542;9.052;2024-02-21T13:17:33;96036.78;;;12.94;49.98
22582;BME280;47125;48.542;9.052;2024-02-21T13:27:37;96009.53;;;13.02;48.97
22582;BME280;47125;48.542;9.052;2024-02-21T13:37:40;95983.94;;;13.16;48.91
22582;BME280;47125;48.542;9.052;2024-02-21T13:47:44;95961.97;;;13.14;49.57
22582;BME280;47125;48.542;9.052;2024-02-21T13:57:47;95956.84;;;13.13;50.31
22582;BME280;47125;48.542;9.052;2024-02-21T14:07:51;95932.19;;;13.16;50.74
22582;BME280;47125;48.542;9.052;2024-02-21T14:17:56;95918.41;;;13.07;50.52
22582;BME280;47125;48.542;9.052;2024-02-21T14:27:59;95909.72;;;12.95;50.48
22582;BME280;47125;48.542;9.052;2024-02-21T14:38:02;95905.69;;;12.93;49.61
22582;BME280;47125;48.542;9.052;2024-02-21T14:48:07;95896.25;;;12.85;50.09
22582;BME280;47125;48.542;9.052;2024-02-21T14:58:09;95871.78;;;12.77;50.21
22582;BME280;47125;48.542;9.052;2024-02-21T15:08:13;95867.13;;;12.67;49.46
22582;BME280;47125;48.542;9.052;2024-02-21T15:18:18;95864.78;;;12.49;49.66
22582;BME280;47125;48.542;9.052;2024-02-21T15:28:22;95829.47;;;12.52;49.89
22582;BME280;47125;48.542;9.052;2024-02-21T15:38:24;95794.53;;;12.42;50.13
22582;BME280;47125;48.542;9.052;2024-02-21T15:48:29;95778.97;;;12.39;50.87
22582;BME280;47125;48.542;9.052;2024-02-21T15:58:32;95761.50;;;12.31;50.46
22582;BME280;47125;48.542;9.052;2024-02-21T16:08:36;95757.44;;;12.29;51.17
22582;BME280;47125;48.542;9.052;2024-02-21T16:18:42;95749.13;;;12.25;52.18
22582;BME280;47125;48.542;9.052;2024-02-21T16:28:46;95734.69;;;11.99;51.80
22582;BME280;47125;48.542;9.052;2024-02-21T16:38:49;95718.03;;;11.92;52.21
22582;BME280;47125;48.542;9.052;2024-02-21T16:48:54;95705.50;;;11.98;52.41
22582;BME280;47125;48.542;9.052;2024-02-21T16:58:56;95705.19;;;11.94;52.40
22582;BME280;47125;48.542;9.052;2024-02-21T17:09:00;95684.25;;;11.86;52.60
22582;BME280;47125;48.542;9.052;2024-02-21T17:19:03;95670.50;;;11.78;53.78
22582;BME280;47125;48.542;9.052;2024-02-21T17:29:08;95679.53;;;11.72;53.11
22582;BME280;47125;48.542;9.052;2024-02-21T17:39:11;95659.63;;;11.63;51.79
22582;BME280;47125;48.542;9.052;2024-02-21T17:49:14;95645.50;;;11.67;52.11
22582;BME280;47125;48.542;9.052;2024-02-21T17:59:18;95645.97;;;11.59;52.51
22582;BME280;47125;48.542;9.052;2024-02-21T18:09:22;95642.69;;;11.57;49.69
22582;BME280;47125;48.542;9.052;2024-02-21T18:19:24;95633.59;;;11.53;48.38
22582;BME280;47125;48.542;9.052;2024-02-21T18:29:28;95621.91;;;11.37;47.65
22582;BME280;47125;48.542;9.052;2024-02-21T18:39:40;95627.94;;;11.28;48.36
22582;BME280;47125;48.542;9.052;2024-02-21T18:49:44;95597.09;;;11.42;46.99
22582;BME280;47125;48.542;9.052;2024-02-21T18:59:47;95584.53;;;11.42;45.65
22582;BME280;47125;48.542;9.052;2024-02-21T19:09:51;95577.59;;;11.41;45.62
22582;BME280;47125;48.542;9.052;2024-02-21T19:19:53;95560.78;;;11.46;45.81
22582;BME280;47125;48.542;9.052;2024-02-21T19:29:57;95539.91;;;11.43;45.84
22582;BME280;47125;48.542;9.052;2024-02-21T19:39:59;95537.41;;;11.36;46.31
22582;BME280;47125;48.542;9.052;2024-02-21T19:50:06;95540.41;;;11.40;46.61
22582;BME280;47125;48.542;9.052;2024-02-21T20:00:10;95505.34;;;11.36;47.15
22582;BME280;47125;48.542;9.052;2024-02-21T20:10:14;95494.91;;;11.35;48.89
22582;BME280;47125;48.542;9.052;2024-02-21T20:20:19;95502.81;;;11.25;50.00
22582;BME280;47125;48.542;9.052;2024-02-21T20:30:24;95476.06;;;11.51;49.47
22582;BME280;47125;48.542;9.052;2024-02-21T20:40:27;95455.84;;;11.66;48.88
22582;BME280;47125;48.542;9.052;2024-02-21T20:50:31;95457.28;;;11.78;48.55
22582;BME280;47125;48.542;9.052;2024-02-21T21:00:34;95453.34;;;11.86;48.82
22582;BME280;47125;48.542;9.052;2024-02-21T21:10:39;95444.44;;;11.75;49.45
22582;BME280;47125;48.542;9.052;2024-02-21T21:20:44;95425.88;;;12.05;46.47
22582;BME280;47125;48.542;9.052;2024-02-21T21:30:47;95407.19;;;12.10;47.16
22582;BME280;47125;48.542;9.052;2024-02-21T21:40:50;95367.59;;;12.18;48.03
22582;BME280;47125;48.542;9.052;2024-02-21T21:50:54;95318.66;;;12.27;47.35
22582;BME280;47125;48.542;9.052;2024-02-21T22:00:57;95278.25;;;12.39;46.61
22582;BME280;47125;48.542;9.052;2024-02-21T22:11:01;95255.22;;;12.48;45.36
22582;BME280;47125;48.542;9.052;2024-02-21T22:21:03;95233.81;;;12.58;45.08
22582;BME280;47125;48.542;9.052;2024-02-21T22:31:07;95227.13;;;12.70;42.77
22582;BME280;47125;48.542;9.052;2024-02-21T22:41:11;95225.19;;;12.86;41.99
22582;BME280;47125;48.542;9.052;2024-02-21T22:51:14;95227.34;;;12.84;42.38
22582;BME280;47125;48.542;9.052;2024-02-21T23:01:19;95227.88;;;12.86;42.81
22582;BME280;47125;48.542;9.052;2024-02-21T23:11:23;95202.44;;;12.84;43.26
22582;BME280;47125;48.542;9.052;2024-02-21T23:21:27;95196.28;;;12.78;43.84
22582;BME280;47125;48.542;9.052;2024-02-21T23:31:31;95180.47;;;12.82;43.67
22582;BME280;47125;48.542;9.052;2024-02-21T23:41:33;95184.78;;;12.73;43.99
22582;BME280;47125;48.542;9.052;2024-02-21T23:51:37;95175.16;;;12.61;44.07
